createdAt,value
2022-08-26T00:01:44.748Z,14.80
2022-08-26T00:04:13.019Z,14.93
2022-08-26T00:06:42.456Z,14.48
2022-08-26T00:09:13.754Z,14.03
2022-08-26T00:11:44.157Z,14.65
2022-08-26T00:14:12.026Z,14.05
2022-08-26T00:16:40.797Z,12.73
2022-08-26T00:19:09.378Z,14.27
2022-08-26T00:21:37.576Z,13.27
2022-08-26T00:24:06.208Z,13.90
2022-08-26T00:26:34.949Z,12.55
2022-08-26T00:29:02.349Z,15.43
2022-08-26T00:31:31.129Z,15.07
2022-08-26T00:33:58.574Z,13.65
2022-08-26T00:36:29.797Z,13.20
2022-08-26T00:38:57.819Z,13.02
2022-08-26T00:41:24.842Z,13.63
2022-08-26T00:43:53.614Z,12.80
2022-08-26T00:46:29.254Z,13.63
2022-08-26T00:49:11.699Z,13.35
2022-08-26T00:51:45.881Z,12.93
2022-08-26T00:54:13.840Z,12.20
2022-08-26T00:56:49.956Z,12.88
2022-08-26T00:59:18.258Z,13.65
2022-08-26T01:01:46.030Z,14.27
2022-08-26T01:04:17.588Z,15.27
2022-08-26T01:06:45.509Z,14.93
2022-08-26T01:09:12.760Z,14.27
2022-08-26T01:11:40.191Z,17.67
2022-08-26T01:14:08.699Z,16.20
2022-08-26T01:16:37.145Z,17.65
2022-08-26T01:19:23.401Z,16.37
2022-08-26T01:21:58.508Z,17.27
2022-08-26T01:24:28.439Z,16.63
2022-08-26T01:27:03.540Z,15.60
2022-08-26T01:29:33.995Z,17.00
2022-08-26T01:32:05.137Z,16.23
2022-08-26T01:34:36.264Z,15.63
2022-08-26T01:37:07.993Z,15.18
2022-08-26T01:39:41.312Z,16.50
2022-08-26T01:42:13.786Z,16.00
2022-08-26T01:45:07.405Z,15.50
2022-08-26T01:47:36.784Z,17.70
2022-08-26T01:50:15.811Z,17.43
2022-08-26T01:52:56.648Z,17.40
2022-08-26T01:55:32.274Z,17.60
2022-08-26T01:58:05.249Z,19.03
2022-08-26T02:00:34.524Z,19.83
2022-08-26T02:03:17.997Z,18.33
2022-08-26T02:05:48.816Z,20.13
2022-08-26T02:08:24.543Z,18.33
2022-08-26T02:10:54.770Z,19.73
2022-08-26T02:13:25.589Z,19.20
2022-08-26T02:15:53.780Z,19.90
2022-08-26T02:18:20.958Z,20.90
2022-08-26T02:20:52.051Z,20.50
2022-08-26T02:23:19.086Z,21.83
2022-08-26T02:25:58.565Z,21.75
2022-08-26T02:28:31.284Z,21.97
2022-08-26T02:30:58.349Z,20.67
2022-08-26T02:33:28.705Z,22.93
2022-08-26T02:35:55.623Z,22.23
2022-08-26T02:38:23.513Z,20.13
2022-08-26T02:40:50.849Z,20.77
2022-08-26T02:43:18.233Z,20.97
2022-08-26T02:45:51.530Z,20.80
2022-08-26T02:48:21.378Z,20.17
2022-08-26T02:50:48.998Z,20.47
2022-08-26T02:53:16.760Z,18.30
2022-08-26T02:55:51.966Z,24.70
2022-08-26T02:58:19.154Z,39.73
2022-08-26T03:00:53.242Z,20.47
2022-08-26T03:03:22.487Z,50.00
2022-08-26T03:05:51.218Z,30.67
2022-08-26T03:08:18.471Z,97.23
2022-08-26T03:10:47.560Z,21.77
2022-08-26T03:13:15.427Z,20.87
2022-08-26T03:15:42.729Z,21.33
2022-08-26T03:18:10.534Z,21.40
2022-08-26T03:20:37.489Z,21.47
2022-08-26T03:23:04.568Z,21.90
2022-08-26T03:25:32.127Z,21.00
2022-08-26T03:27:59.711Z,20.97
2022-08-26T03:30:45.419Z,22.47
2022-08-26T03:33:14.665Z,21.33
2022-08-26T03:35:44.358Z,23.63
2022-08-26T03:38:11.833Z,26.67
2022-08-26T03:40:39.266Z,28.10
2022-08-26T03:43:09.724Z,30.93
2022-08-26T03:45:38.075Z,30.47
2022-08-26T03:48:05.895Z,36.83
2022-08-26T03:50:34.235Z,39.23
2022-08-26T03:53:02.278Z,52.30
2022-08-26T03:55:32.174Z,37.13
2022-08-26T03:58:00.792Z,37.43
2022-08-26T04:00:29.446Z,38.87
2022-08-26T04:02:56.678Z,45.87
2022-08-26T04:05:23.925Z,40.53
2022-08-26T04:07:52.287Z,40.43
2022-08-26T04:10:28.488Z,40.83
2022-08-26T04:13:06.163Z,46.43
2022-08-26T04:15:33.503Z,44.30
2022-08-26T04:18:01.015Z,45.87
2022-08-26T04:20:28.661Z,42.77
2022-08-26T04:22:55.646Z,50.70
2022-08-26T04:25:24.355Z,49.33
2022-08-26T04:27:51.769Z,51.60
2022-08-26T04:30:20.300Z,49.10
2022-08-26T04:32:49.142Z,57.13
2022-08-26T04:35:16.571Z,53.33
2022-08-26T04:37:44.533Z,57.10
2022-08-26T04:40:11.816Z,61.50
2022-08-26T04:42:38.950Z,60.90
2022-08-26T04:45:10.018Z,69.87
2022-08-26T04:47:37.891Z,63.93
2022-08-26T04:50:07.480Z,67.33
2022-08-26T04:52:35.681Z,76.07
2022-08-26T04:55:06.648Z,159.03
2022-08-26T04:57:35.620Z,81.07
2022-08-26T05:00:10.200Z,80.83
2022-08-26T05:02:38.131Z,78.50
2022-08-26T05:05:23.417Z,81.73
2022-08-26T05:07:50.814Z,81.30
2022-08-26T05:10:18.052Z,81.60
2022-08-26T05:12:55.331Z,87.33
2022-08-26T05:15:23.506Z,79.37
2022-08-26T05:17:51.262Z,90.57
2022-08-26T05:20:20.620Z,80.20
2022-08-26T05:22:52.672Z,78.40
2022-08-26T05:25:20.569Z,81.10
2022-08-26T05:27:48.396Z,79.30
2022-08-26T05:30:15.718Z,77.93
2022-08-26T05:32:43.031Z,78.93
2022-08-26T05:35:10.180Z,77.57
2022-08-26T05:37:40.204Z,78.17
2022-08-26T05:40:08.083Z,75.97
2022-08-26T05:42:35.471Z,76.07
2022-08-26T05:45:02.794Z,76.37
2022-08-26T05:47:30.224Z,95.17
2022-08-26T05:49:57.505Z,80.60
2022-08-26T05:52:25.996Z,72.67
2022-08-26T05:54:53.428Z,71.50
2022-08-26T05:57:20.401Z,65.70
2022-08-26T05:59:50.436Z,68.37
2022-08-26T06:02:17.496Z,67.03
2022-08-26T06:04:44.872Z,74.00
2022-08-26T06:07:12.018Z,66.27
2022-08-26T06:09:40.386Z,63.90
2022-08-26T06:12:07.713Z,63.03
2022-08-26T06:14:36.264Z,60.03
2022-08-26T06:25:22.034Z,56.70
2022-08-26T06:27:51.172Z,54.73
2022-08-26T06:30:18.421Z,54.43
2022-08-26T06:32:45.879Z,55.67
2022-08-26T06:35:13.242Z,54.07
2022-08-26T06:37:43.084Z,51.93
2022-08-26T06:40:22.748Z,54.53
2022-08-26T06:43:03.214Z,54.17
2022-08-26T06:45:31.044Z,54.23
2022-08-26T06:47:58.778Z,52.17
2022-08-26T06:50:25.942Z,53.23
2022-08-26T06:52:54.630Z,52.00
2022-08-26T06:55:26.995Z,52.47
2022-08-26T06:57:54.695Z,53.27
2022-08-26T07:00:21.742Z,52.77
2022-08-26T07:02:49.271Z,52.27
2022-08-26T07:05:17.279Z,53.93
2022-08-26T07:07:44.553Z,51.70
2022-08-26T07:10:11.610Z,49.97
2022-08-26T07:12:39.108Z,50.43
2022-08-26T07:15:08.906Z,94.80
2022-08-26T07:17:36.366Z,54.63
2022-08-26T07:20:07.102Z,52.17
2022-08-26T07:22:35.664Z,53.53
2022-08-26T07:25:07.862Z,53.67
2022-08-26T07:27:37.305Z,52.83
2022-08-26T07:30:08.604Z,55.17
2022-08-26T07:32:37.779Z,56.22
2022-08-26T07:35:06.407Z,52.97
2022-08-26T07:37:35.548Z,53.58
2022-08-26T07:40:06.864Z,62.00
2022-08-26T07:42:34.641Z,52.80
2022-08-26T07:45:02.137Z,51.17
2022-08-26T07:47:29.265Z,52.20
2022-08-26T07:49:57.752Z,46.70
2022-08-26T07:52:28.287Z,235.97
2022-08-26T07:55:00.642Z,52.67
2022-08-26T07:57:29.400Z,50.37
2022-08-26T07:59:57.028Z,47.17
2022-08-26T08:02:28.280Z,47.38
2022-08-26T08:04:56.927Z,46.13
2022-08-26T08:07:38.262Z,46.20
2022-08-26T08:10:17.765Z,46.05
2022-08-26T08:12:46.214Z,42.30
2022-08-26T08:15:15.679Z,45.15
2022-08-26T08:17:43.947Z,46.47
2022-08-26T08:20:12.663Z,42.95
2022-08-26T08:22:40.131Z,43.10
2022-08-26T08:25:10.497Z,43.95
2022-08-26T08:27:39.869Z,42.05
2022-08-26T08:30:08.523Z,41.78
2022-08-26T08:32:38.430Z,39.42
2022-08-26T08:35:10.903Z,41.28
2022-08-26T08:37:38.630Z,42.17
2022-08-26T08:40:08.136Z,42.22
2022-08-26T08:43:04.179Z,42.53
2022-08-26T08:45:44.915Z,44.38
2022-08-26T08:48:22.522Z,38.33
2022-08-26T08:51:02.648Z,44.42
2022-08-26T08:53:37.722Z,41.45
2022-08-26T08:56:12.349Z,43.92
2022-08-26T08:59:08.653Z,37.22
2022-08-26T09:01:44.736Z,35.83
2022-08-26T09:04:31.328Z,38.07
2022-08-26T09:07:02.017Z,35.28
2022-08-26T09:10:01.875Z,35.45
2022-08-26T09:12:32.123Z,34.43
2022-08-26T09:15:11.514Z,34.00
2022-08-26T09:18:00.039Z,32.78
2022-08-26T09:20:48.979Z,32.10
2022-08-26T09:23:18.196Z,30.95
2022-08-26T09:25:48.775Z,32.47
2022-08-26T09:28:19.568Z,30.15
2022-08-26T09:30:58.409Z,62.47
2022-08-26T09:33:30.696Z,34.08
2022-08-26T09:36:41.122Z,31.60
2022-08-26T09:39:28.602Z,32.15
2022-08-26T09:42:04.143Z,32.60
2022-08-26T09:44:32.839Z,33.05
2022-08-26T09:47:10.920Z,31.35
2022-08-26T09:49:41.171Z,27.83
2022-08-26T09:52:17.762Z,30.33
2022-08-26T09:54:46.168Z,29.30
2022-08-26T09:57:26.702Z,29.90
2022-08-26T09:59:54.084Z,33.35
2022-08-26T10:02:33.796Z,32.15
2022-08-26T10:05:09.692Z,30.15
2022-08-26T10:07:45.154Z,27.23
2022-08-26T10:10:26.415Z,29.20
2022-08-26T10:13:12.524Z,28.35
2022-08-26T10:15:52.791Z,27.73
2022-08-26T10:32:03.789Z,26.85
2022-08-26T10:34:32.904Z,41.90
2022-08-26T10:37:15.870Z,28.40
2022-08-26T10:40:07.868Z,24.50
2022-08-26T10:42:45.637Z,70.68
2022-08-26T10:45:19.960Z,38.90
2022-08-26T10:47:56.358Z,23.70
2022-08-26T10:50:38.513Z,47.97
2022-08-26T10:53:11.569Z,22.30
2022-08-26T10:55:52.644Z,25.67
2022-08-26T10:58:38.283Z,25.80
2022-08-26T11:01:45.113Z,25.35
2022-08-26T11:04:48.332Z,23.77
2022-08-26T11:07:36.384Z,22.65
2022-08-26T11:10:08.382Z,23.92
2022-08-26T11:12:38.779Z,22.80
2022-08-26T11:15:14.008Z,22.05
2022-08-26T11:17:46.055Z,34.78
2022-08-26T11:20:35.060Z,20.35
2022-08-26T11:23:28.480Z,19.10
2022-08-26T11:26:32.795Z,17.05
2022-08-26T11:29:03.745Z,18.50
2022-08-26T11:31:31.762Z,17.48
2022-08-26T11:34:08.679Z,16.73
2022-08-26T11:36:58.710Z,17.02
2022-08-26T11:39:36.965Z,16.08
2022-08-26T11:42:42.635Z,17.45
2022-08-26T11:46:02.462Z,21.33
2022-08-26T11:48:31.173Z,17.00
2022-08-26T11:51:02.495Z,16.30
2022-08-26T11:53:33.342Z,16.98
2022-08-26T11:56:04.485Z,15.32
2022-08-26T11:58:32.138Z,15.23
2022-08-26T12:01:09.680Z,14.60
2022-08-26T12:03:44.733Z,12.00
2022-08-26T12:06:15.369Z,12.50
2022-08-26T12:08:44.937Z,11.88
2022-08-26T12:11:21.521Z,10.98
2022-08-26T12:14:02.264Z,11.50
2022-08-26T12:16:32.173Z,12.65
2022-08-26T12:19:00.286Z,11.90
2022-08-26T12:21:31.536Z,46.28
2022-08-26T12:24:07.330Z,30.45
2022-08-26T12:26:36.964Z,12.25
2022-08-26T12:29:27.089Z,13.20
2022-08-26T12:32:17.567Z,11.90
2022-08-26T12:34:47.392Z,21.67
2022-08-26T12:37:15.780Z,12.00
2022-08-26T12:39:45.774Z,15.63
2022-08-26T12:42:12.751Z,13.23
2022-08-26T12:44:58.710Z,13.73
2022-08-26T12:47:43.176Z,37.67
2022-08-26T12:50:30.260Z,9.27
2022-08-26T12:53:05.082Z,15.43
2022-08-26T12:55:32.050Z,12.98
2022-08-26T12:58:13.691Z,16.73
2022-08-26T13:00:47.046Z,9.75
2022-08-26T13:03:35.070Z,7.72
2022-08-26T13:06:23.568Z,31.77
2022-08-26T13:08:57.794Z,18.23
2022-08-26T13:11:35.565Z,9.68
2022-08-26T13:14:07.238Z,11.15
2022-08-26T13:16:36.199Z,9.07
2022-08-26T13:19:12.078Z,22.38
2022-08-26T13:21:47.960Z,12.65
2022-08-26T13:24:19.060Z,18.23
2022-08-26T13:26:49.194Z,11.60
2022-08-26T13:29:16.941Z,12.95
2022-08-26T13:31:45.101Z,12.75
2022-08-26T13:34:15.291Z,9.38
2022-08-26T13:36:45.317Z,16.02
2022-08-26T13:39:12.778Z,7.32
2022-08-26T13:41:40.395Z,10.70
2022-08-26T13:44:13.817Z,8.68
2022-08-26T13:46:41.409Z,13.45
2022-08-26T13:49:08.859Z,7.28
2022-08-26T13:51:36.605Z,7.00
2022-08-26T13:54:05.649Z,8.30
2022-08-26T13:56:33.699Z,7.80
2022-08-26T13:59:01.538Z,7.55
2022-08-26T14:01:30.352Z,7.72
2022-08-26T14:03:57.671Z,14.75
2022-08-26T14:06:25.817Z,7.43
2022-08-26T14:08:52.829Z,25.95
2022-08-26T14:11:21.707Z,7.65
2022-08-26T14:13:48.753Z,11.15
2022-08-26T14:16:24.310Z,17.70
2022-08-26T14:19:03.811Z,13.90
2022-08-26T14:21:33.919Z,14.52
2022-08-26T14:24:01.207Z,10.40
2022-08-26T14:26:29.940Z,14.25
2022-08-26T14:29:01.209Z,14.43
2022-08-26T14:31:31.596Z,12.13
2022-08-26T14:34:01.401Z,7.28
2022-08-26T14:36:28.385Z,10.13
2022-08-26T14:38:58.526Z,7.43
2022-08-26T14:41:26.509Z,7.53
2022-08-26T14:44:00.170Z,17.90
2022-08-26T14:46:30.248Z,7.45
2022-08-26T14:49:01.482Z,8.10
2022-08-26T14:51:29.178Z,10.35
2022-08-26T14:54:14.884Z,19.17
2022-08-26T14:56:52.486Z,9.32
2022-08-26T14:59:25.573Z,7.75
2022-08-26T15:01:54.606Z,6.68
2022-08-26T15:04:23.129Z,14.70
2022-08-26T15:06:51.890Z,6.30
2022-08-26T15:09:19.244Z,6.35
2022-08-26T15:11:47.733Z,6.82
2022-08-26T15:14:19.066Z,7.10
2022-08-26T15:16:50.495Z,5.90
2022-08-26T15:19:18.593Z,11.25
2022-08-26T15:21:47.356Z,8.27
2022-08-26T15:24:17.065Z,9.93
2022-08-26T15:26:45.457Z,15.18
2022-08-26T15:29:13.349Z,9.75
2022-08-26T15:31:40.847Z,4.95
2022-08-26T15:34:13.286Z,5.38
2022-08-26T15:36:45.006Z,4.80
2022-08-26T15:39:13.123Z,4.65
2022-08-26T15:41:40.733Z,13.77
2022-08-26T15:44:11.190Z,12.98
2022-08-26T15:46:38.707Z,5.03
2022-08-26T15:49:06.282Z,18.65
2022-08-26T15:51:45.427Z,6.63
2022-08-26T16:26:40.621Z,7.10
2022-08-26T16:33:00.940Z,14.10
2022-08-26T16:35:30.162Z,8.77
2022-08-26T16:38:00.839Z,6.57
2022-08-26T16:40:32.519Z,6.47
2022-08-26T16:43:09.559Z,7.40
2022-08-26T16:48:24.974Z,9.65
2022-08-26T16:50:57.058Z,5.20
2022-08-26T16:53:39.278Z,10.45
2022-08-26T17:06:27.296Z,21.35
2022-08-26T17:11:39.885Z,5.28
2022-08-26T17:14:10.628Z,8.77
2022-08-26T17:22:06.054Z,7.90
2022-08-26T17:25:18.107Z,4.40
2022-08-26T17:27:51.783Z,7.43
2022-08-26T17:33:39.973Z,4.40
2022-08-26T17:36:08.749Z,7.15
2022-08-26T17:38:43.039Z,4.60
2022-08-26T17:41:14.732Z,17.08
2022-08-26T17:46:27.849Z,3.57
2022-08-26T17:49:07.825Z,3.70
2022-08-26T17:51:37.274Z,16.90
2022-08-26T17:54:06.014Z,13.93
2022-08-26T17:59:15.250Z,6.47
2022-08-26T18:02:00.851Z,5.50
2022-08-26T18:04:31.259Z,4.40
2022-08-26T18:06:59.680Z,5.87
2022-08-26T18:09:47.843Z,4.50
2022-08-26T18:12:18.347Z,5.50
2022-08-26T18:14:59.324Z,6.20
2022-08-26T18:17:27.266Z,7.10
2022-08-26T18:22:46.188Z,5.15
2022-08-26T18:25:17.401Z,5.93
2022-08-26T18:33:13.029Z,9.73
2022-08-26T18:35:42.904Z,9.30
2022-08-26T18:38:11.913Z,8.47
2022-08-26T18:40:41.730Z,6.43
2022-08-26T18:43:09.159Z,4.80
2022-08-26T18:45:36.974Z,4.83
2022-08-26T18:48:04.890Z,4.60
2022-08-26T18:50:31.938Z,4.43
2022-08-26T18:52:59.315Z,5.23
2022-08-26T18:55:26.797Z,4.90
2022-08-26T18:57:54.402Z,4.90
2022-08-26T19:00:21.684Z,4.63
2022-08-26T19:02:52.034Z,12.13
2022-08-26T19:05:22.431Z,5.17
2022-08-26T19:07:49.496Z,4.43
2022-08-26T19:10:16.783Z,4.57
2022-08-26T19:13:19.073Z,5.13
2022-08-26T19:26:37.543Z,6.40
2022-08-26T19:29:05.595Z,5.00
2022-08-26T19:31:36.305Z,6.10
2022-08-26T19:34:05.587Z,14.83
2022-08-26T19:36:33.901Z,24.27
2022-08-26T19:39:04.952Z,7.73
2022-08-26T19:41:38.042Z,12.67
2022-08-26T19:44:09.173Z,7.83
2022-08-26T19:49:05.362Z,9.07
2022-08-26T19:51:45.495Z,8.60
2022-08-26T19:54:12.845Z,5.97
2022-08-26T19:56:50.083Z,7.00
2022-08-26T19:59:17.719Z,5.23
2022-08-26T20:01:45.379Z,4.90
2022-08-26T20:04:13.009Z,7.20
2022-08-26T20:06:43.009Z,7.17
2022-08-26T20:09:11.531Z,5.60
2022-08-26T20:11:38.954Z,7.93
2022-08-26T20:14:05.928Z,5.53
2022-08-26T20:16:33.211Z,5.57
2022-08-26T20:19:18.840Z,6.93
2022-08-26T20:21:46.791Z,6.57
2022-08-26T20:24:17.765Z,10.77
2022-08-26T20:26:45.701Z,10.17
2022-08-26T20:29:17.356Z,14.03
2022-08-26T20:31:45.354Z,10.00
2022-08-26T20:34:14.632Z,10.03
2022-08-26T20:36:42.776Z,19.53
2022-08-26T20:39:11.125Z,7.93
2022-08-26T20:41:39.370Z,8.90
2022-08-26T20:44:07.459Z,10.57
2022-08-26T20:46:37.477Z,11.33
2022-08-26T20:49:05.974Z,9.13
2022-08-26T20:51:37.377Z,16.57
2022-08-26T20:54:06.537Z,25.90
2022-08-26T20:56:34.272Z,17.63
2022-08-26T20:59:03.838Z,15.53
2022-08-26T21:01:34.972Z,19.20
2022-08-26T21:04:12.858Z,9.30
2022-08-26T21:06:42.261Z,9.27
2022-08-26T21:09:15.941Z,9.23
2022-08-26T21:11:44.525Z,9.47
2022-08-26T21:14:15.865Z,9.63
2022-08-26T21:16:44.875Z,10.10
2022-08-26T21:19:14.769Z,8.63
2022-08-26T21:21:43.043Z,22.27
2022-08-26T21:24:13.704Z,11.60
2022-08-26T21:29:28.484Z,11.13
2022-08-26T21:31:55.791Z,10.53
2022-08-26T21:34:23.068Z,10.53
2022-08-26T21:36:50.624Z,12.20
2022-08-26T21:39:18.301Z,11.17
2022-08-26T21:41:46.072Z,11.07
2022-08-26T21:44:15.321Z,9.90
2022-08-26T21:49:25.579Z,10.53
2022-08-26T21:51:53.966Z,8.73
2022-08-26T21:54:24.118Z,7.83
2022-08-26T21:56:52.908Z,7.07
2022-08-26T21:59:20.537Z,6.77
2022-08-26T22:01:47.953Z,6.10
2022-08-26T22:06:59.256Z,5.03
2022-08-26T22:09:29.124Z,4.43
2022-08-26T22:11:57.154Z,4.33
2022-08-26T22:14:30.670Z,4.33
2022-08-26T22:16:59.825Z,4.40
2022-08-26T22:19:27.436Z,3.80
2022-08-26T22:21:55.402Z,3.73
2022-08-26T22:24:24.934Z,3.53
2022-08-26T22:26:52.913Z,3.53
2022-08-26T22:29:21.276Z,4.40
2022-08-26T22:31:48.827Z,4.00
2022-08-26T22:34:18.593Z,4.17
2022-08-26T22:36:48.122Z,3.93
2022-08-26T22:39:18.856Z,3.67
2022-08-26T22:41:48.817Z,4.37
2022-08-26T22:44:17.064Z,3.87
2022-08-26T22:46:46.532Z,3.60
2022-08-26T22:49:18.466Z,3.30
2022-08-26T22:51:47.913Z,3.33
2022-08-26T22:54:17.422Z,2.50
2022-08-26T23:59:35.300Z,2.43
